»·PEaware :: UAL2417 KSFO-KRNO

UAL2417 :: KSFO-KRNO

FLIGHT INFORMATION

Flight Status: Arrived
Operator:
United Airlines
More flights by this operator :: More flights under this callsign
Pilot: Jamyson D. (13674)
Aircraft: AIRBUS A320
(A320)
More flights by this aircraft type
Origin: KSFO San Francisco Intl
United States
Destination: KRNO Reno/Tahoe Intl
United States
More flights between these airports :: More routes between these airports
Route: +TRUKN2 ORRCA TARVR SPOON
File this flight plan on PilotEdge
Remarks:
Altitude:
(Current/Filed)
23,000ft
Speed:
(Current/Filed)
384kts
Departed: 10-May-18 12:35 PM
Arrived: 10-May-18 01:13 PM
Distance/Time
Traveled:
166nm/0:38
Distance/Time
To Go:
Arrived

Flight Plot

Page will automatically refresh every two minutes.

Flight plan parsing failed; only flown route is shown


Map Options




Map Legend


Flown Route
Filed Route
Departure Airport
Arrival Airport
Navaid (VOR, NDB)
Fix

Horizontal Profiles

Position Reports

Time Latitude Longitude Heading Altitude Ground
Speed
10-May-18 12:22 37.619195 -122.383546 291 21ft 0kts
10-May-18 12:23 37.619195 -122.383546 291 21ft 0kts
10-May-18 12:24 37.619195 -122.383546 291 21ft 0kts
10-May-18 12:25 37.619195 -122.383546 291 21ft 0kts
10-May-18 12:26 37.619195 -122.383546 291 21ft 0kts
10-May-18 12:27 37.618890 -122.383154 344 21ft 2kts
10-May-18 12:28 37.618489 -122.383223 28 21ft 0kts
10-May-18 12:29 37.618490 -122.383222 28 21ft 0kts
10-May-18 12:30 37.619424 -122.382566 33 21ft 12kts
10-May-18 12:31 37.617874 -122.379545 167 21ft 12kts
10-May-18 12:32 37.614380 -122.381189 208 21ft 15kts
10-May-18 12:33 37.610612 -122.383629 205 21ft 2kts
10-May-18 12:34 37.608928 -122.384702 154 21ft 11kts
10-May-18 12:35 37.611732 -122.380466 20 21ft 94kts
10-May-18 12:36 37.644487 -122.349920 52 1753ft 196kts
10-May-18 12:37 37.681922 -122.283118 52 4087ft 276kts
10-May-18 12:38 37.727232 -122.205842 34 7600ft 288kts
10-May-18 12:39 37.786109 -122.152631 33 10631ft 300kts
10-May-18 12:40 37.841124 -122.102877 33 11709ft 354kts
10-May-18 12:41 37.925508 -122.026283 33 13083ft 398kts
10-May-18 12:42 38.014877 -121.945069 32 15155ft 409kts
10-May-18 12:43 38.094316 -121.872630 32 16777ft 417kts
10-May-18 12:44 38.170379 -121.803070 32 18188ft 425kts
10-May-18 12:45 38.253108 -121.727201 31 19579ft 432kts
10-May-18 12:46 38.343900 -121.643685 31 20949ft 439kts
10-May-18 12:47 38.435433 -121.542878 51 22273ft 458kts
10-May-18 12:48 38.478828 -121.392278 63 23050ft 473kts
10-May-18 12:49 38.568424 -121.287882 39 23054ft 467kts
10-May-18 12:50 38.618929 -121.160577 74 23050ft 488kts
10-May-18 12:51 38.640190 -121.008387 76 23084ft 486kts
10-May-18 12:52 38.662394 -120.857190 76 23104ft 486kts
10-May-18 12:53 38.685656 -120.698210 76 23111ft 486kts
10-May-18 12:54 38.708811 -120.538458 76 23111ft 486kts
10-May-18 12:55 38.731691 -120.377364 76 23137ft 487kts
10-May-18 12:56 38.752096 -120.228759 77 22412ft 455kts
10-May-18 12:57 38.756281 -120.199322 77 22064ft 450kts
10-May-18 12:58 38.756281 -120.199322 77 22064ft 450kts
10-May-18 12:59 38.775029 -120.068131 77 19426ft 420kts
10-May-18 13:00 38.794287 -119.933034 78 15482ft 396kts
10-May-18 13:01 38.812128 -119.808110 73 14087ft 309kts
10-May-18 13:02 38.871051 -119.770214 358 14066ft 255kts
10-May-18 13:03 38.941407 -119.770551 357 12850ft 255kts
10-May-18 13:04 39.022138 -119.770474 357 11412ft 254kts
10-May-18 13:05 39.090536 -119.770347 357 10581ft 252kts
10-May-18 13:06 39.144573 -119.770356 357 10572ft 252kts
10-May-18 13:07 39.214826 -119.770010 357 11110ft 259kts
10-May-18 13:08 39.289191 -119.769839 358 8834ft 287kts
10-May-18 13:09 39.361702 -119.769585 358 7248ft 237kts
10-May-18 13:10 39.420848 -119.769502 358 5851ft 191kts
10-May-18 13:11 39.466471 -119.769160 358 4739ft 148kts
10-May-18 13:12 39.498918 -119.769247 358 4418ft 42kts
10-May-18 13:13 39.503706 -119.772756 268 4418ft 16kts

Navigation Log

Ident Type
Flight plan parsing failed, navigation log unavailable